Pagina principale
METAR-TAF:

METAR-TAF

Aeroporti :

Lugano, Svizzera

Aeroporto di Lugano-Agno

latitudine: 46-00N, longitudine: 008-58E, altezza: 273 m

Osservazione

Il bollettino è stato emesso 20 minuti fa, alle 07:50 UTC
Vento 1 kt da direzioni variabili
Temperature 21°C
Umidità 60%
Pressione 1021 hPa
Visibilità 10 km o più
Nubi sparse ad un'altezza di 6000 ft

METAR: LSZA 270750Z VRB01KT 9999 SCT060 21/13 Q1021 NOSIG

Ora: 10:10 (08:10 UTC)

Previsione

Il bollettino è stato emesso 2 ore e 45 minuti fa, alle 05:25 UTC
Previsione valida dal 27 alle 06 UTC al 27 alle 15 UTC
Vento 3 kt da direzioni variabili
Visibilità 10 km o più
Nubi sparse ad un'altezza di 6000 ft

TAF: LSZA 270525Z 2706/2715 VRB03KT 9999 SCT060

Osservazioni e previsioni meteorologiche di più di 4000 aeroporti (messaggi METAR e TAF).

Le stazioni disponibili sono rappresentate dai dischi gialli e rossi sulla carta.

Puntare il mouse per vedere il nome della stazione.

Clicca sopra per visualizzare le osservazioni e previsioni meteorologiche.

Per cambiare la mappa : fare clic sui pulsanti verdi con una croce nera per ingrandire, il pulsante verde con un trattino per diminuire, o sulla freccia verde per le mappe adiacenti.


METAR-TAF: